Time;durP1;ratioP1;P1;durP2;ratioP2;P2;SDS_P1;SDS_P2;PMS_P1;PMS_P2;Temp;Humidity;BMP_temperature;BMP_pressure;BME280_temperature;BME280_humidity;BME280_pressure;Samples;Min_cycle;Max_cycle;Signal;HPM_P1;HPM_P2
2022/04/09 00:00:58;;;;;;;1.85;1.75;;;;;;;2.81;100.00;99246.50;7390495;19;20036;-88
2022/04/09 00:03:24;;;;;;;1.45;1.45;;;;;;;2.81;100.00;99252.78;7392083;19;20025;-80
2022/04/09 00:05:51;;;;;;;2.25;1.13;;;;;;;2.84;100.00;99257.38;7391047;19;20039;-80
2022/04/09 00:08:17;;;;;;;1.33;1.23;;;;;;;2.84;100.00;99257.38;7389905;19;20044;-80
2022/04/09 00:10:47;;;;;;;1.27;1.27;;;;;;;2.79;100.00;99257.94;7390654;19;20051;-80
2022/04/09 00:13:13;;;;;;;0.95;0.95;;;;;;;2.76;100.00;99261.56;7389985;19;20011;-80
2022/04/09 00:15:40;;;;;;;1.60;1.52;;;;;;;2.75;100.00;99260.00;7389902;19;20781;-80
2022/04/09 00:18:06;;;;;;;1.20;1.17;;;;;;;2.72;100.00;99271.88;7388998;19;20397;-81
2022/04/09 00:20:32;;;;;;;1.73;1.55;;;;;;;2.75;100.00;99273.75;7389917;19;20030;-80
2022/04/09 00:22:58;;;;;;;1.13;1.13;;;;;;;2.74;100.00;99269.47;7392877;19;20027;-80
2022/04/09 00:25:25;;;;;;;3.72;1.98;;;;;;;2.76;100.00;99272.56;7394133;19;20010;-80
2022/04/09 00:27:51;;;;;;;0.90;0.90;;;;;;;2.74;100.00;99276.94;7388483;19;20014;-80
2022/04/09 00:30:18;;;;;;;1.73;1.67;;;;;;;2.72;100.00;99284.84;7389075;19;20035;-80
2022/04/09 00:32:44;;;;;;;1.33;1.33;;;;;;;2.74;100.00;99282.44;7393680;19;20560;-80
2022/04/09 00:35:10;;;;;;;1.38;1.38;;;;;;;2.71;100.00;99284.06;7390159;19;20480;-81
2022/04/09 00:37:45;;;;;;;2.00;1.90;;;;;;;2.61;100.00;99276.91;7392827;19;20814;-81
2022/04/09 00:40:14;;;;;;;1.90;1.80;;;;;;;2.58;100.00;99277.03;7390768;19;20019;-81
2022/04/09 00:42:42;;;;;;;2.42;2.22;;;;;;;2.53;100.00;99281.06;7394344;19;20090;-80
2022/04/09 00:45:10;;;;;;;0.68;0.68;;;;;;;2.51;100.00;99286.25;7389005;19;20057;-80
2022/04/09 00:47:36;;;;;;;1.23;1.17;;;;;;;2.52;100.00;99287.75;7388750;19;20494;-81
2022/04/09 00:50:04;;;;;;;1.60;1.60;;;;;;;2.55;100.00;99289.66;7387545;19;20025;-80
2022/04/09 00:52:33;;;;;;;3.90;2.15;;;;;;;2.52;100.00;99290.50;7391207;19;20018;-80
2022/04/09 00:55:02;;;;;;;3.17;1.90;;;;;;;2.51;100.00;99297.22;7389024;19;20043;-81
2022/04/09 00:57:32;;;;;;;1.30;1.30;;;;;;;2.51;100.00;99301.94;7394786;19;20619;-80
2022/04/09 01:00:01;;;;;;;1.95;1.85;;;;;;;2.48;100.00;99294.56;7389569;19;20097;-80
2022/04/09 01:02:27;;;;;;;1.65;1.55;;;;;;;2.47;100.00;99299.28;7392264;19;20025;-79
2022/04/09 01:04:53;;;;;;;1.45;1.45;;;;;;;2.46;100.00;99306.00;7394384;19;20102;-80
2022/04/09 01:07:20;;;;;;;2.25;0.95;;;;;;;2.44;100.00;99305.66;7385853;19;20018;-79
2022/04/09 01:09:46;;;;;;;1.90;1.90;;;;;;;2.40;100.00;99305.00;7389915;19;20018;-80
2022/04/09 01:12:15;;;;;;;1.35;1.35;;;;;;;2.38;100.00;99310.16;7388110;19;20773;-80
2022/04/09 01:14:41;;;;;;;2.83;1.33;;;;;;;2.37;100.00;99311.34;7385807;19;20018;-80
2022/04/09 01:17:07;;;;;;;0.98;0.98;;;;;;;2.37;100.00;99316.84;7387148;19;20032;-80
2022/04/09 01:19:34;;;;;;;1.45;1.35;;;;;;;2.35;100.00;99313.75;7386975;19;20014;-80
2022/04/09 01:22:00;;;;;;;1.48;1.13;;;;;;;2.29;100.00;99321.00;7387142;19;20074;-80
2022/04/09 01:24:28;;;;;;;1.13;1.13;;;;;;;2.28;100.00;99324.94;7391487;19;20018;-79
2022/04/09 01:26:55;;;;;;;1.92;1.90;;;;;;;2.23;100.00;99333.72;7385339;19;20107;-80
2022/04/09 01:29:29;;;;;;;0.68;0.68;;;;;;;2.19;100.00;99324.75;7390550;19;20132;-79
2022/04/09 01:31:55;;;;;;;1.95;1.45;;;;;;;2.16;100.00;99333.88;7388853;19;20365;-80
2022/04/09 01:34:22;;;;;;;3.50;1.73;;;;;;;2.11;100.00;99332.44;7390130;19;20042;-79
2022/04/09 01:36:48;;;;;;;6.82;1.40;;;;;;;2.11;100.00;99332.44;7387516;19;20859;-79
2022/04/09 01:39:17;;;;;;;2.03;1.92;;;;;;;2.09;100.00;99334.84;7387415;19;20022;-78
2022/04/09 01:41:45;;;;;;;2.42;2.25;;;;;;;2.06;100.00;99337.66;7387060;19;20011;-79
2022/04/09 01:44:11;;;;;;;0.60;0.60;;;;;;;2.05;100.00;99344.38;7388642;19;20097;-78
2022/04/09 01:46:41;;;;;;;0.90;0.90;;;;;;;2.05;100.00;99342.41;7381127;19;20026;-78
2022/04/09 01:49:07;;;;;;;0.85;0.85;;;;;;;2.03;100.00;99352.25;7387155;19;20023;-79
2022/04/09 01:51:34;;;;;;;1.00;1.00;;;;;;;2.06;100.00;99343.16;7388297;19;20010;-79
2022/04/09 01:54:00;;;;;;;1.10;1.10;;;;;;;2.06;100.00;99348.63;7390312;19;20023;-79
2022/04/09 01:56:26;;;;;;;1.45;1.45;;;;;;;2.05;100.00;99349.84;7386571;19;20655;-79
2022/04/09 01:58:52;;;;;;;1.67;1.67;;;;;;;2.07;100.00;99355.69;7388751;19;20024;-79
2022/04/09 02:01:22;;;;;;;1.00;1.00;;;;;;;2.05;100.00;99352.59;7385442;19;20011;-79
2022/04/09 02:03:48;;;;;;;1.60;1.60;;;;;;;2.11;100.00;99359.13;7387708;19;20014;-79
2022/04/09 02:06:14;;;;;;;1.42;1.42;;;;;;;2.13;100.00;99356.72;7385146;19;20540;-80
2022/04/09 02:08:41;;;;;;;1.40;1.40;;;;;;;2.13;100.00;99354.75;7386729;19;20014;-79
2022/04/09 02:11:08;;;;;;;4.03;1.67;;;;;;;2.08;100.00;99365.47;7388924;19;20010;-79
2022/04/09 02:13:35;;;;;;;1.58;1.58;;;;;;;2.06;100.00;99368.63;7385191;19;20138;-79
2022/04/09 02:16:01;;;;;;;1.35;1.35;;;;;;;2.05;100.00;99372.59;7385517;19;20014;-79
2022/04/09 02:18:27;;;;;;;1.23;1.23;;;;;;;2.07;100.00;99375.69;7386949;19;20516;-79
2022/04/09 02:20:54;;;;;;;1.30;1.30;;;;;;;2.10;100.00;99379.56;7384599;19;20338;-78
2022/04/09 02:23:21;;;;;;;1.88;1.88;;;;;;;2.11;100.00;99386.56;7387390;19;20038;-79
2022/04/09 02:25:47;;;;;;;2.53;1.67;;;;;;;2.14;100.00;99380.97;7385455;19;20521;-79
2022/04/09 02:28:13;;;;;;;5.45;3.15;;;;;;;2.18;100.00;99386.41;7387387;19;20038;-79
2022/04/09 02:30:39;;;;;;;3.78;2.70;;;;;;;2.20;100.00;99384.00;7386223;19;20039;-79
2022/04/09 02:33:09;;;;;;;4.43;2.72;;;;;;;2.15;100.00;99387.25;7389353;19;20006;-80
2022/04/09 02:35:41;;;;;;;3.05;2.80;;;;;;;2.11;100.00;99381.09;7388165;19;20018;-79
2022/04/09 02:38:10;;;;;;;11.98;2.42;;;;;;;2.06;100.00;99392.56;7389622;19;20495;-79
2022/04/09 02:40:38;;;;;;;4.05;3.47;;;;;;;2.09;100.00;99389.75;7383493;19;20022;-79
2022/04/09 02:43:06;;;;;;;1.13;1.13;;;;;;;2.05;100.00;99382.81;7389412;19;20702;-79
2022/04/09 02:45:33;;;;;;;2.53;2.33;;;;;;;2.02;100.00;99389.16;7384319;19;20045;-79
2022/04/09 02:48:00;;;;;;;2.08;1.98;;;;;;;1.97;100.00;99390.44;7382928;19;20373;-78
2022/04/09 02:50:30;;;;;;;1.70;1.63;;;;;;;1.94;100.00;99393.28;7384572;19;20508;-79
2022/04/09 02:52:57;;;;;;;4.30;2.17;;;;;;;1.90;100.00;99398.84;7391057;19;20468;-79
2022/04/09 02:55:25;;;;;;;2.33;2.13;;;;;;;1.94;100.00;99399.53;7384852;19;20011;-79
2022/04/09 02:57:51;;;;;;;1.75;1.75;;;;;;;1.95;100.00;99412.06;7383492;19;20516;-79
2022/04/09 03:00:20;;;;;;;1.08;1.08;;;;;;;1.93;100.00;99406.22;7384299;19;20115;-78
2022/04/09 03:02:46;;;;;;;1.45;1.45;;;;;;;1.97;100.00;99408.91;7388241;19;20042;-79
2022/04/09 03:05:41;;;;;;;1.90;1.77;;;;;;;2.05;100.00;99404.78;7383897;19;20011;-79
2022/04/09 03:08:07;;;;;;;1.27;1.27;;;;;;;2.14;100.00;99413.19;7384744;19;20051;-79
2022/04/09 03:10:34;;;;;;;1.92;1.70;;;;;;;2.24;100.00;99418.44;7390613;19;20014;-79
2022/04/09 03:13:00;;;;;;;5.38;1.92;;;;;;;2.36;100.00;99410.69;7390280;19;20018;-79
2022/04/09 03:15:26;;;;;;;1.20;1.20;;;;;;;2.43;100.00;99424.22;7383221;19;20042;-79
2022/04/09 03:17:54;;;;;;;3.00;2.03;;;;;;;2.52;100.00;99419.69;7387362;19;20108;-79
2022/04/09 03:20:22;;;;;;;1.38;1.27;;;;;;;2.57;100.00;99419.16;7383909;19;20027;-79
2022/04/09 03:22:49;;;;;;;2.08;1.98;;;;;;;2.62;100.00;99421.38;7388123;19;20019;-77
2022/04/09 03:25:25;;;;;;;1.40;1.33;;;;;;;2.68;100.00;99422.41;7382825;19;20021;-77
2022/04/09 03:27:54;;;;;;;1.95;1.95;;;;;;;2.71;100.00;99427.03;7380527;19;20015;-79
2022/04/09 03:30:21;;;;;;;2.20;2.20;;;;;;;2.74;100.00;99428.94;7383550;19;20031;-77
2022/04/09 03:32:48;;;;;;;1.75;1.70;;;;;;;2.76;100.00;99421.00;7385814;19;20495;-78
2022/04/09 03:35:20;;;;;;;1.40;1.40;;;;;;;2.80;100.00;99435.44;7388182;19;20633;-77
2022/04/09 03:37:48;;;;;;;1.80;1.70;;;;;;;2.81;100.00;99430.72;7384136;19;20059;-78
2022/04/09 03:40:18;;;;;;;1.83;1.73;;;;;;;2.74;100.00;99434.41;7390238;19;20099;-77
2022/04/09 03:42:45;;;;;;;1.83;1.73;;;;;;;2.65;100.00;99428.75;7394498;19;20015;-76
2022/04/09 03:45:12;;;;;;;1.20;1.20;;;;;;;2.64;100.00;99443.69;7390841;19;20010;-77
2022/04/09 03:47:38;;;;;;;1.67;1.67;;;;;;;2.68;100.00;99441.66;7387839;19;20014;-77
2022/04/09 03:50:09;;;;;;;;;;;;;;;2.72;100.00;99436.84;7390490;19;20022;-77
2022/04/09 03:52:38;;;;;;;1.63;1.63;;;;;;;2.71;100.00;99443.53;7393663;19;19933;-76
2022/04/09 03:55:05;;;;;;;1.00;1.00;;;;;;;2.75;100.00;99446.19;7389142;19;20398;-78
2022/04/09 03:57:31;;;;;;;1.20;1.20;;;;;;;2.73;100.00;99437.63;7392165;19;20018;-77
2022/04/09 03:59:58;;;;;;;4.18;1.30;;;;;;;2.76;100.00;99437.50;7387402;19;20024;-77
2022/04/09 04:02:24;;;;;;;1.23;1.23;;;;;;;2.74;100.00;99439.13;7393399;19;20324;-77
2022/04/09 04:04:52;;;;;;;1.13;1.10;;;;;;;2.69;100.00;99448.69;7394675;19;20014;-77
2022/04/09 04:07:23;;;;;;;6.80;1.38;;;;;;;2.59;100.00;99446.22;7388211;19;20398;-77
2022/04/09 04:09:50;;;;;;;1.73;1.63;;;;;;;2.59;100.00;99459.97;7389348;19;20010;-77
2022/04/09 04:12:17;;;;;;;6.13;1.58;;;;;;;2.60;100.00;99462.25;7387979;19;20015;-87
2022/04/09 04:14:44;;;;;;;1.20;1.20;;;;;;;2.61;100.00;99452.81;7394012;19;20021;-87
2022/04/09 04:17:12;;;;;;;1.55;1.55;;;;;;;2.65;100.00;99459.00;7389897;19;20018;-84
2022/04/09 04:19:39;;;;;;;10.90;1.75;;;;;;;2.61;100.00;99461.06;7391545;19;20486;-84
2022/04/09 04:22:08;;;;;;;1.85;1.75;;;;;;;2.57;100.00;99457.66;7391271;19;20029;-89
2022/04/09 04:24:37;;;;;;;1.75;1.73;;;;;;;2.50;100.00;99455.06;7398397;19;20015;-89
2022/04/09 04:27:05;;;;;;;0.70;0.70;;;;;;;2.42;100.00;99461.94;7393796;19;20015;-88
2022/04/09 04:29:32;;;;;;;1.23;1.23;;;;;;;2.35;100.00;99466.84;7396914;19;20039;-85
2022/04/09 04:31:59;;;;;;;1.33;1.33;;;;;;;2.30;100.00;99465.38;7396890;19;20015;-82
2022/04/09 04:34:25;;;;;;;1.65;1.65;;;;;;;2.25;100.00;99463.91;7393237;19;20520;-85
2022/04/09 04:36:51;;;;;;;1.50;1.50;;;;;;;2.27;100.00;99471.75;7390442;19;20018;-80
2022/04/09 04:39:18;;;;;;;2.55;1.98;;;;;;;2.24;100.00;99467.09;7398472;19;20014;-91
2022/04/09 04:41:49;;;;;;;1.40;1.40;;;;;;;2.22;100.00;99475.75;7397392;19;20011;-86
2022/04/09 04:44:16;;;;;;;2.00;1.92;;;;;;;2.20;100.00;99466.41;7398118;19;20010;-86
2022/04/09 04:46:46;;;;;;;0.82;0.82;;;;;;;2.21;100.00;99478.94;7398178;19;20015;-84
2022/04/09 04:49:17;;;;;;;1.20;1.20;;;;;;;2.16;100.00;99480.22;7399939;19;20017;-87
2022/04/09 04:51:45;;;;;;;1.63;1.63;;;;;;;2.12;100.00;99476.78;7396897;19;20074;-88
2022/04/09 04:54:12;;;;;;;0.70;0.70;;;;;;;2.13;100.00;99483.03;7396849;19;20031;-88
2022/04/09 04:56:40;;;;;;;1.25;1.25;;;;;;;2.08;100.00;99481.56;7397794;19;20405;-88
2022/04/09 04:59:07;;;;;;;1.10;1.10;;;;;;;2.08;100.00;99475.34;7394228;19;20523;-90
2022/04/09 05:01:34;;;;;;;1.95;1.95;;;;;;;2.11;100.00;99477.22;7389345;19;20070;-84
2022/04/09 05:04:05;;;;;;;8.57;1.53;;;;;;;2.05;100.00;99482.44;7394852;19;20019;-87
2022/04/09 05:06:33;;;;;;;1.58;1.48;;;;;;;1.97;100.00;99485.78;7396546;19;20327;-87
2022/04/09 05:09:00;;;;;;;1.25;1.25;;;;;;;1.93;100.00;99491.34;7400710;19;20011;-88
2022/04/09 05:11:40;;;;;;;1.70;1.70;;;;;;;1.94;100.00;99500.34;7396850;19;20025;-88
2022/04/09 05:14:11;;;;;;;;;;;;;;;1.99;100.00;99500.59;7402020;19;20013;-88
2022/04/09 05:16:44;;;;;;;1.30;1.30;;;;;;;2.03;100.00;99500.53;7397761;19;19922;-88
2022/04/09 05:19:10;;;;;;;1.63;1.55;;;;;;;2.06;100.00;99513.41;7398215;19;20022;-88
2022/04/09 05:21:40;;;;;;;1.10;1.10;;;;;;;2.17;100.00;99516.69;7396575;19;20014;-88
2022/04/09 05:24:07;;;;;;;1.40;1.40;;;;;;;2.35;100.00;99519.03;7398764;19;20480;-88
2022/04/09 05:26:35;;;;;;;1.25;1.25;;;;;;;2.41;100.00;99517.31;7395430;19;20010;-88
2022/04/09 05:29:02;;;;;;;0.55;0.55;;;;;;;2.45;100.00;99510.53;7396337;19;20042;-87
2022/04/09 05:31:28;;;;;;;0.50;0.50;;;;;;;2.53;100.00;99506.44;7396627;19;20469;-87
2022/04/09 05:33:56;;;;;;;0.95;0.95;;;;;;;2.69;100.00;99506.41;7396306;19;20042;-87
2022/04/09 05:36:24;;;;;;;0.90;0.90;;;;;;;2.80;100.00;99509.66;7397228;19;20014;-87
2022/04/09 05:38:53;;;;;;;4.72;1.77;;;;;;;2.90;100.00;99519.63;7396390;19;20019;-87
2022/04/09 05:41:20;;;;;;;2.35;2.15;;;;;;;3.03;100.00;99520.47;7396233;19;20094;-87
2022/04/09 05:43:46;;;;;;;1.35;1.10;;;;;;;3.21;100.00;99527.47;7395795;19;20018;-88
2022/04/09 05:46:15;;;;;;;1.30;1.30;;;;;;;3.38;100.00;99531.75;7395284;19;20010;-88
2022/04/09 05:48:44;;;;;;;1.33;1.33;;;;;;;3.46;100.00;99531.13;7393481;19;20022;-87
2022/04/09 05:51:10;;;;;;;0.82;0.82;;;;;;;3.54;100.00;99539.94;7394680;19;20002;-88
2022/04/09 05:53:41;;;;;;;1.15;1.15;;;;;;;3.57;100.00;99539.81;7395760;19;20006;-87
2022/04/09 05:56:08;;;;;;;0.98;0.98;;;;;;;3.60;100.00;99538.19;7395978;19;20009;-88
2022/04/09 05:58:41;;;;;;;1.10;1.10;;;;;;;3.64;100.00;99544.34;7395796;19;20588;-88
2022/04/09 06:01:09;;;;;;;1.13;1.05;;;;;;;3.66;100.00;99541.97;7392630;19;20368;-87
2022/04/09 06:03:35;;;;;;;3.90;1.23;;;;;;;3.66;100.00;99541.97;7395716;19;20078;-88
2022/04/09 06:06:03;;;;;;;0.88;0.88;;;;;;;3.67;100.00;99541.53;7394775;19;20011;-88
2022/04/09 06:08:47;;;;;;;2.15;1.33;;;;;;;3.70;100.00;99545.41;7395755;19;20022;-88
2022/04/09 06:11:22;;;;;;;0.68;0.68;;;;;;;3.68;100.00;99553.31;7394503;19;20028;-88
2022/04/09 06:13:51;;;;;;;0.60;0.60;;;;;;;3.70;100.00;99554.41;7393856;19;20019;-88
2022/04/09 06:16:17;;;;;;;0.68;0.68;;;;;;;3.82;100.00;99561.16;7393160;19;20010;-88
2022/04/09 06:18:49;;;;;;;1.48;1.45;;;;;;;3.84;100.00;99564.25;7395397;19;20006;-87
2022/04/09 06:21:16;;;;;;;0.82;0.82;;;;;;;3.78;100.00;99571.50;7393923;19;20031;-88
2022/04/09 06:23:43;;;;;;;1.17;1.08;;;;;;;3.73;100.00;99577.53;7393669;19;20039;-89
2022/04/09 06:26:09;;;;;;;1.48;1.48;;;;;;;3.80;100.00;99574.59;7393763;19;20468;-89
2022/04/09 06:28:37;;;;;;;2.95;1.13;;;;;;;3.81;100.00;99576.16;7393439;19;20045;-88
2022/04/09 06:31:03;;;;;;;0.90;0.90;;;;;;;3.81;100.00;99581.66;7393790;19;20018;-89
2022/04/09 06:33:31;;;;;;;1.58;1.10;;;;;;;3.89;100.00;99580.25;7392659;19;20011;-88
2022/04/09 06:36:03;;;;;;;1.13;1.13;;;;;;;3.89;100.00;99588.50;7392917;19;20028;-88
2022/04/09 06:38:33;;;;;;;0.88;0.85;;;;;;;3.97;100.00;99595.34;7395079;19;20050;-89
2022/04/09 06:41:02;;;;;;;0.95;0.95;;;;;;;3.97;100.00;99595.34;7390727;19;20081;-89
2022/04/09 06:43:38;;;;;;;1.75;1.05;;;;;;;4.03;100.00;99599.13;7392264;19;20023;-89
2022/04/09 06:46:25;;;;;;;0.75;0.75;;;;;;;4.09;100.00;99602.13;7395977;19;20022;-89
2022/04/09 06:49:20;;;;;;;0.60;0.60;;;;;;;4.12;100.00;99607.50;7392583;19;20002;-88
2022/04/09 06:51:47;;;;;;;0.80;0.80;;;;;;;4.16;100.00;99613.69;7393178;19;20021;-90
2022/04/09 06:54:33;;;;;;;0.88;0.88;;;;;;;4.28;100.00;99609.41;7395756;19;20039;-90
2022/04/09 06:57:00;;;;;;;1.65;1.10;;;;;;;4.37;100.00;99617.81;7397174;19;20109;-90
2022/04/09 06:59:31;;;;;;;0.98;0.98;;;;;;;4.44;100.00;99621.13;7394009;19;20015;-90
2022/04/09 07:01:58;;;;;;;0.98;0.98;;;;;;;4.51;100.00;99629.19;7392190;19;20344;-90
2022/04/09 07:04:24;;;;;;;1.08;1.08;;;;;;;4.56;100.00;99625.88;7394200;19;20029;-91
2022/04/09 07:06:50;;;;;;;1.00;1.00;;;;;;;4.68;100.00;99640.88;7393584;19;20018;-90
2022/04/09 07:09:17;;;;;;;0.93;0.93;;;;;;;4.74;100.00;99636.38;7392312;19;20015;-89
2022/04/09 07:11:43;;;;;;;11.57;1.35;;;;;;;4.84;100.00;99646.31;7392358;19;20011;-90
2022/04/09 07:14:09;;;;;;;0.68;0.68;;;;;;;4.93;100.00;99648.41;7396899;19;20014;-90
2022/04/09 07:16:35;;;;;;;0.98;0.98;;;;;;;5.17;100.00;99655.13;7400597;19;20050;-91
2022/04/09 07:19:01;;;;;;;1.23;1.17;;;;;;;5.55;100.00;99650.28;7402676;19;20378;-91
2022/04/09 07:21:28;;;;;;;1.10;1.10;;;;;;;5.84;100.00;99645.34;7405469;19;20018;-90
2022/04/09 07:23:54;;;;;;;0.90;0.90;;;;;;;5.93;100.00;99642.63;7406313;19;20093;-91
2022/04/09 07:26:20;;;;;;;0.80;0.68;;;;;;;5.98;100.00;99644.06;7410664;19;20074;-92
2022/04/09 07:28:47;;;;;;;0.85;0.85;;;;;;;6.02;100.00;99639.94;7416910;19;20441;-93
2022/04/09 07:31:13;;;;;;;0.55;0.52;;;;;;;6.08;100.00;99649.22;7409164;19;20021;-88
2022/04/09 07:33:39;;;;;;;0.88;0.63;;;;;;;6.27;100.00;99644.56;7403599;19;20029;-90
2022/04/09 07:36:06;;;;;;;0.35;0.35;;;;;;;6.59;100.00;99643.38;7401081;19;20082;-91
2022/04/09 07:38:32;;;;;;;0.68;0.57;;;;;;;6.88;100.00;99649.34;7406328;19;20019;-91
2022/04/09 07:40:58;;;;;;;0.60;0.60;;;;;;;7.21;100.00;99655.91;7404679;19;20026;-92
2022/04/09 07:43:25;;;;;;;13.43;1.83;;;;;;;7.50;100.00;99650.75;7403948;19;20010;-92
2022/04/09 07:45:51;;;;;;;5.43;1.85;;;;;;;7.70;100.00;99655.09;7402360;19;20029;-91
2022/04/09 07:48:17;;;;;;;0.73;0.73;;;;;;;7.85;100.00;99656.00;7402163;19;20010;-91
2022/04/09 07:50:44;;;;;;;9.88;3.05;;;;;;;7.93;100.00;99654.47;7404213;19;20012;-94
2022/04/09 07:53:11;;;;;;;3.45;1.48;;;;;;;7.89;100.00;99660.19;7405421;19;20855;-93
2022/04/09 07:55:37;;;;;;;3.30;1.95;;;;;;;7.84;100.00;99663.56;7402998;19;20052;-90
2022/04/09 07:58:06;;;;;;;8.60;2.55;;;;;;;7.80;100.00;99667.72;7401688;19;20019;-91
2022/04/09 08:00:37;;;;;;;3.78;1.55;;;;;;;7.81;100.00;99670.03;7400669;19;20022;-91
2022/04/09 08:03:03;;;;;;;27.23;3.47;;;;;;;7.82;100.00;99674.34;7402304;19;20027;-88
2022/04/09 08:05:29;;;;;;;13.75;3.05;;;;;;;7.80;100.00;99676.81;7403629;19;20014;-90
2022/04/09 08:07:57;;;;;;;5.70;1.92;;;;;;;7.95;100.00;99683.28;7400881;19;20018;-90
2022/04/09 08:10:23;;;;;;;4.97;1.33;;;;;;;8.02;100.00;99684.97;7403838;19;20003;-91
2022/04/09 08:12:51;;;;;;;0.80;0.43;;;;;;;8.17;100.00;99683.13;7391743;19;20379;-56
2022/04/09 08:15:18;;;;;;;2.67;1.67;;;;;;;8.35;100.00;99689.47;7393877;19;20089;-56
2022/04/09 08:17:45;;;;;;;1.13;0.85;;;;;;;8.57;100.00;99686.50;7394529;19;20351;-55
2022/04/09 08:20:13;;;;;;;7.75;1.02;;;;;;;8.73;100.00;99685.34;7391141;19;20022;-56
2022/04/09 08:22:41;;;;;;;1.30;0.85;;;;;;;8.84;100.00;99688.41;7393216;19;20074;-56
2022/04/09 08:25:08;;;;;;;0.65;0.65;;;;;;;8.87;100.00;99693.81;7392769;19;20015;-56
2022/04/09 08:27:35;;;;;;;0.40;0.40;;;;;;;8.93;100.00;99691.94;7392327;19;20010;-56
2022/04/09 08:30:04;;;;;;;0.68;0.40;;;;;;;9.02;100.00;99689.13;7393675;19;20074;-56
2022/04/09 08:32:30;;;;;;;2.92;0.50;;;;;;;9.17;100.00;99705.91;7393926;19;20461;-55
2022/04/09 08:34:56;;;;;;;1.42;0.38;;;;;;;9.30;100.00;99700.13;7396799;19;20042;-56
2022/04/09 08:37:23;;;;;;;1.35;1.25;;;;;;;9.38;100.00;99706.88;7393265;19;20484;-56
2022/04/09 08:39:50;;;;;;;1.85;1.20;;;;;;;9.50;100.00;99706.66;7392775;19;20010;-55
2022/04/09 08:42:17;;;;;;;2.42;1.00;;;;;;;9.50;100.00;99708.66;7394948;19;20014;-55
2022/04/09 08:44:43;;;;;;;2.85;1.13;;;;;;;9.59;100.00;99714.19;7393404;19;20189;-56
2022/04/09 08:47:13;;;;;;;0.30;0.30;;;;;;;9.92;100.00;99714.88;7392074;19;20345;-56
2022/04/09 08:49:43;;;;;;;1.15;0.85;;;;;;;10.22;100.00;99716.53;7391016;19;20015;-56
2022/04/09 08:52:10;;;;;;;1.15;1.10;;;;;;;10.38;100.00;99712.53;7395664;19;20021;-56
2022/04/09 08:54:37;;;;;;;4.07;0.57;;;;;;;10.55;100.00;99719.97;7397579;19;20039;-55
2022/04/09 08:57:04;;;;;;;2.20;1.10;;;;;;;10.53;100.00;99719.66;7391816;19;20078;-56
2022/04/09 08:59:31;;;;;;;8.98;0.73;;;;;;;10.30;100.00;99722.50;7392645;19;20018;-55
2022/04/09 09:01:58;;;;;;;0.68;0.65;;;;;;;10.17;100.00;99722.00;7395242;19;20011;-55
2022/04/09 09:04:24;;;;;;;0.30;0.20;;;;;;;10.21;100.00;99717.78;7396151;19;20030;-56
2022/04/09 09:06:50;;;;;;;0.50;0.47;;;;;;;10.26;100.00;99722.69;7391660;19;20011;-55
2022/04/09 09:09:31;;;;;;;0.30;0.30;;;;;;;10.27;100.00;99724.22;7396862;19;20036;-55
2022/04/09 09:12:00;;;;;;;3.93;0.97;;;;;;;10.04;100.00;99743.72;7394628;19;20011;-56
2022/04/09 09:14:27;;;;;;;0.47;0.45;;;;;;;9.77;100.00;99758.56;7392226;19;20224;-56
2022/04/09 09:17:00;;;;;;;2.30;0.85;;;;;;;9.36;100.00;99756.59;7391544;19;20335;-56
2022/04/09 09:19:47;;;;;;;0.60;0.60;;;;;;;9.13;100.00;99750.53;7392105;19;20474;-55
2022/04/09 09:22:15;;;;;;;0.50;0.50;;;;;;;8.92;100.00;99757.03;7395464;19;20070;-55
2022/04/09 09:24:41;;;;;;;1.65;0.43;;;;;;;8.74;100.00;99751.53;7396741;19;20006;-55
2022/04/09 09:27:07;;;;;;;0.80;0.80;;;;;;;8.75;100.00;99750.28;7391073;19;20006;-55
2022/04/09 09:29:36;;;;;;;0.35;0.28;;;;;;;8.94;100.00;99751.03;7392536;19;20349;-55
2022/04/09 09:32:05;;;;;;;0.75;0.75;;;;;;;9.16;100.00;99757.91;7395145;19;20015;-55
2022/04/09 09:34:33;;;;;;;0.60;0.60;;;;;;;9.36;100.00;99754.59;7395411;19;20087;-55
2022/04/09 09:36:59;;;;;;;11.25;1.15;;;;;;;9.59;100.00;99759.44;7388531;19;20010;-55
2022/04/09 09:39:26;;;;;;;1.67;0.52;;;;;;;9.82;100.00;99760.69;7391573;19;20021;-55
2022/04/09 09:41:54;;;;;;;0.63;0.60;;;;;;;10.02;100.00;99763.66;7393268;19;20094;-55
2022/04/09 09:44:22;;;;;;;9.45;1.02;;;;;;;10.18;100.00;99768.06;7391577;19;20639;-55
2022/04/09 09:46:50;;;;;;;3.50;0.95;;;;;;;10.19;100.00;99756.47;7391209;19;20011;-55
2022/04/09 09:49:17;;;;;;;0.50;0.50;;;;;;;10.24;100.00;99750.25;7394848;19;20018;-55
2022/04/09 09:52:00;;;;;;;0.30;0.30;;;;;;;10.27;100.00;99768.75;7395881;19;20042;-55
2022/04/09 09:54:27;;;;;;;1.98;1.00;;;;;;;10.38;100.00;99757.84;7394794;19;20014;-55
2022/04/09 09:56:55;;;;;;;1.20;0.93;;;;;;;10.48;100.00;99767.66;7390497;19;20030;-55
2022/04/09 09:59:22;;;;;;;2.38;0.80;;;;;;;10.59;100.00;99767.09;7390080;19;20011;-55
2022/04/09 10:01:48;;;;;;;7.63;0.90;;;;;;;10.77;100.00;99772.50;7392833;19;20022;-55
2022/04/09 10:04:15;;;;;;;1.55;0.57;;;;;;;10.94;100.00;99770.00;7393664;19;20038;-55
2022/04/09 10:06:42;;;;;;;1.15;0.77;;;;;;;11.14;100.00;99765.31;7389537;19;20015;-55
2022/04/09 10:09:09;;;;;;;0.65;0.65;;;;;;;11.34;100.00;99764.63;7392929;19;20020;-55
2022/04/09 10:11:39;;;;;;;2.45;0.55;;;;;;;11.57;100.00;99771.28;7392350;19;20011;-55
2022/04/09 10:14:08;;;;;;;1.73;1.63;;;;;;;11.82;100.00;99779.84;7390409;19;20018;-55
2022/04/09 10:16:35;;;;;;;0.70;0.60;;;;;;;12.10;100.00;99764.25;7390470;19;20427;-55
2022/04/09 10:19:04;;;;;;;4.40;1.10;;;;;;;12.28;100.00;99765.22;7390339;19;20031;-56
2022/04/09 10:21:33;;;;;;;3.28;1.15;;;;;;;12.42;100.00;99779.09;7391972;19;20718;-55
2022/04/09 10:24:03;;;;;;;3.35;0.50;;;;;;;12.45;100.00;99769.72;7393871;19;20052;-56
2022/04/09 10:26:30;;;;;;;0.47;0.47;;;;;;;12.26;100.00;99770.53;7390033;19;20017;-55
2022/04/09 10:29:08;;;;;;;0.50;0.50;;;;;;;11.86;100.00;99797.16;7389436;19;20006;-55
2022/04/09 10:31:40;;;;;;;0.38;0.38;;;;;;;11.30;100.00;99820.56;7389595;19;20358;-55
2022/04/09 10:34:08;;;;;;;;;;;;;;;10.48;100.00;99837.25;7393627;19;20339;-56
2022/04/09 10:36:40;;;;;;;0.40;0.40;;;;;;;9.79;100.00;99843.06;7390475;19;20308;-56
2022/04/09 10:39:39;;;;;;;5.25;1.83;;;;;;;9.44;100.00;99838.41;7389712;19;20376;-56
2022/04/09 10:42:06;;;;;;;2.00;1.48;;;;;;;9.49;100.00;99832.22;7392626;19;20010;-57
2022/04/09 10:44:42;;;;;;;0.25;0.25;;;;;;;9.63;100.00;99837.09;7388798;19;20052;-56
2022/04/09 10:47:14;;;;;;;0.65;0.65;;;;;;;9.89;100.00;99833.44;7390609;19;20014;-56
2022/04/09 10:50:02;;;;;;;0.35;0.35;;;;;;;9.96;100.00;99828.78;7402840;19;20017;-56
2022/04/09 10:52:30;;;;;;;0.75;0.60;;;;;;;10.02;100.00;99830.44;7406532;19;20017;-56
2022/04/09 10:55:19;;;;;;;0.30;0.30;;;;;;;10.14;100.00;99823.88;7405201;19;20015;-56
2022/04/09 10:57:47;;;;;;;0.55;0.30;;;;;;;10.14;100.00;99820.31;7406410;19;20023;-56
2022/04/09 11:00:23;;;;;;;0.60;0.50;;;;;;;10.11;100.00;99810.94;7402969;19;20010;-56
2022/04/09 11:03:16;;;;;;;3.60;1.35;;;;;;;10.12;100.00;99829.16;7406930;19;20010;-56
2022/04/09 11:05:43;;;;;;;0.32;0.32;;;;;;;10.27;100.00;99818.84;7402770;19;20058;-56
2022/04/09 11:08:14;;;;;;;0.82;0.52;;;;;;;10.48;100.00;99817.03;7401908;19;20018;-57
2022/04/09 11:10:44;;;;;;;7.60;1.27;;;;;;;10.76;100.00;99812.75;7404169;19;20469;-56
2022/04/09 11:13:14;;;;;;;1.58;1.23;;;;;;;10.96;100.00;99812.88;7402469;19;20040;-55
2022/04/09 11:15:44;;;;;;;5.22;1.35;;;;;;;11.09;100.00;99816.16;7406723;19;20047;-55
2022/04/09 11:18:10;;;;;;;0.50;0.50;;;;;;;11.31;100.00;99810.19;7403423;19;20011;-56
2022/04/09 11:20:37;;;;;;;0.70;0.60;;;;;;;11.44;100.00;99813.44;7403131;19;20010;-57
2022/04/09 11:23:20;;;;;;;0.93;0.93;;;;;;;11.64;100.00;99816.31;7407037;19;20510;-56
2022/04/09 11:25:47;;;;;;;0.52;0.52;;;;;;;11.73;100.00;99813.44;7402485;19;20074;-56
2022/04/09 11:28:18;;;;;;;2.53;1.02;;;;;;;11.96;100.00;99812.50;7401668;19;20021;-57
2022/04/09 11:30:54;;;;;;;6.43;1.00;;;;;;;12.06;100.00;99802.72;7403607;19;20010;-56
2022/04/09 11:33:22;;;;;;;2.60;0.60;;;;;;;12.26;100.00;99801.97;7404084;19;20007;-57
2022/04/09 11:35:48;;;;;;;3.63;1.20;;;;;;;12.29;100.00;99806.59;7402238;19;20013;-56
2022/04/09 11:38:16;;;;;;;0.40;0.40;;;;;;;12.44;100.00;99812.88;7402339;19;20014;-57